Time;durP1;ratioP1;P1;durP2;ratioP2;P2;SDS_P1;SDS_P2;PMS_P1;PMS_P2;Temp;Humidity;BMP_temperature;BMP_pressure;BME280_temperature;BME280_humidity;BME280_pressure;Samples;Min_cycle;Max_cycle;Signal;HPM_P1;HPM_P2
2022/08/07 00:01:01;;;;;;;7.97;5.63;;;;;;;;;;4991241;28;20444;-62
2022/08/07 00:03:27;;;;;;;9.38;5.70;;;;;;;;;;4991556;28;20042;-62
2022/08/07 00:05:53;;;;;;;8.95;6.10;;;;;;;;;;4991542;28;20105;-62
2022/08/07 00:08:21;;;;;;;8.38;5.85;;;;;;;;;;4991086;28;20054;-62
2022/08/07 00:10:47;;;;;;;7.65;6.47;;;;;;;;;;4991577;28;20042;-62
2022/08/07 00:13:14;;;;;;;10.52;5.75;;;;;;;;;;4991473;28;20163;-62
2022/08/07 00:15:40;;;;;;;9.88;5.80;;;;;;;;;;4990678;28;20208;-62
2022/08/07 00:18:08;;;;;;;8.52;6.40;;;;;;;;;;4991145;28;20103;-62
2022/08/07 00:20:34;;;;;;;10.02;6.70;;;;;;;;;;4991125;28;20038;-62
2022/08/07 00:23:00;;;;;;;11.70;6.25;;;;;;;;;;4990973;28;20041;-62
2022/08/07 00:25:26;;;;;;;12.38;6.43;;;;;;;;;;4990969;28;20076;-62
2022/08/07 00:27:52;;;;;;;6.80;5.70;;;;;;;;;;4991261;28;20543;-62
2022/08/07 00:30:19;;;;;;;7.70;5.47;;;;;;;;;;4993521;28;20049;-62
2022/08/07 00:32:49;;;;;;;11.32;6.40;;;;;;;;;;4995286;28;20047;-62
2022/08/07 00:35:17;;;;;;;12.23;6.03;;;;;;;;;;4995385;28;20533;-62
2022/08/07 00:37:43;;;;;;;9.95;5.60;;;;;;;;;;4994979;28;20042;-62
2022/08/07 00:40:09;;;;;;;8.13;5.68;;;;;;;;;;4995168;28;20034;-62
2022/08/07 00:42:35;;;;;;;7.93;5.95;;;;;;;;;;4995215;28;20074;-62
2022/08/07 00:45:01;;;;;;;7.43;5.43;;;;;;;;;;4995173;28;20105;-62
2022/08/07 00:47:27;;;;;;;8.07;5.60;;;;;;;;;;4976595;28;20408;-62
2022/08/07 00:49:53;;;;;;;9.02;5.80;;;;;;;;;;4994889;28;20108;-62
2022/08/07 00:52:20;;;;;;;9.70;5.93;;;;;;;;;;4995054;28;20046;-62
2022/08/07 00:54:46;;;;;;;7.50;5.50;;;;;;;;;;4994364;28;20129;-62
2022/08/07 00:57:12;;;;;;;8.48;6.10;;;;;;;;;;4994877;28;20129;-62
2022/08/07 00:59:38;;;;;;;8.50;5.97;;;;;;;;;;4994926;28;20408;-62
2022/08/07 01:02:05;;;;;;;8.35;6.10;;;;;;;;;;4994251;28;20081;-62
2022/08/07 01:04:31;;;;;;;9.07;6.22;;;;;;;;;;4994812;28;20046;-62
2022/08/07 01:06:58;;;;;;;9.73;6.28;;;;;;;;;;4994579;28;20034;-62
2022/08/07 01:09:24;;;;;;;11.13;6.13;;;;;;;;;;4994379;28;20042;-62
2022/08/07 01:11:51;;;;;;;7.15;5.47;;;;;;;;;;4994453;28;20043;-62
2022/08/07 01:14:18;;;;;;;8.45;6.00;;;;;;;;;;4994658;28;20133;-62
2022/08/07 01:16:44;;;;;;;8.63;5.97;;;;;;;;;;4993869;28;20046;-62
2022/08/07 01:19:11;;;;;;;8.63;5.65;;;;;;;;;;4977049;28;20441;-62
2022/08/07 01:21:38;;;;;;;11.07;6.10;;;;;;;;;;4994461;28;20089;-62
2022/08/07 01:24:04;;;;;;;10.25;6.05;;;;;;;;;;4994182;28;20080;-62
2022/08/07 01:26:30;;;;;;;12.07;5.57;;;;;;;;;;4993756;28;20042;-62
2022/08/07 01:28:57;;;;;;;8.20;5.95;;;;;;;;;;4994325;28;20082;-62
2022/08/07 01:31:27;;;;;;;8.48;5.95;;;;;;;;;;4994026;28;20039;-62
2022/08/07 01:33:53;;;;;;;8.35;6.35;;;;;;;;;;4976677;28;20046;-62
2022/08/07 01:36:19;;;;;;;10.57;6.78;;;;;;;;;;4994159;28;20409;-62
2022/08/07 01:38:45;;;;;;;7.45;5.97;;;;;;;;;;4993699;28;20038;-62
2022/08/07 01:41:12;;;;;;;9.38;5.88;;;;;;;;;;4993254;28;20589;-62
2022/08/07 01:43:38;;;;;;;8.93;6.55;;;;;;;;;;4993856;28;20050;-62
2022/08/07 01:46:04;;;;;;;10.90;6.97;;;;;;;;;;4993509;28;20045;-62
2022/08/07 01:48:31;;;;;;;10.07;6.30;;;;;;;;;;4993349;28;20081;-62
2022/08/07 01:51:02;;;;;;;10.90;7.22;;;;;;;;;;4976566;28;20050;-62
2022/08/07 01:53:29;;;;;;;8.75;6.65;;;;;;;;;;4993419;28;20181;-62
2022/08/07 01:55:57;;;;;;;9.80;6.40;;;;;;;;;;4993832;28;20515;-62
2022/08/07 01:58:27;;;;;;;8.45;6.00;;;;;;;;;;4993879;28;20121;-62
2022/08/07 02:00:57;;;;;;;11.30;6.03;;;;;;;;;;4975889;28;20065;-62
2022/08/07 02:03:24;;;;;;;10.02;6.78;;;;;;;;;;4976304;28;20049;-62
2022/08/07 02:06:11;;;;;;;14.05;6.68;;;;;;;;;;4993613;28;20052;-62
2022/08/07 02:08:39;;;;;;;11.55;6.93;;;;;;;;;;4993163;28;20053;-62
2022/08/07 02:11:06;;;;;;;11.80;7.22;;;;;;;;;;4975928;28;20049;-62
2022/08/07 02:13:33;;;;;;;9.13;6.65;;;;;;;;;;4993626;28;20034;-62
2022/08/07 02:16:00;;;;;;;9.63;7.05;;;;;;;;;;4975266;28;20101;-62
2022/08/07 02:18:27;;;;;;;14.07;7.10;;;;;;;;;;4993413;28;20049;-62
2022/08/07 02:20:54;;;;;;;8.82;6.57;;;;;;;;;;4993509;28;20465;-62
2022/08/07 02:23:21;;;;;;;11.50;7.88;;;;;;;;;;4992865;28;20034;-62
2022/08/07 02:25:47;;;;;;;8.18;6.60;;;;;;;;;;4993148;28;20099;-62
2022/08/07 02:28:14;;;;;;;10.55;6.13;;;;;;;;;;4993153;28;20042;-62
2022/08/07 02:30:42;;;;;;;10.50;6.50;;;;;;;;;;4992766;28;20516;-62
2022/08/07 02:33:08;;;;;;;9.15;6.82;;;;;;;;;;4993218;28;20397;-62
2022/08/07 02:35:35;;;;;;;9.20;6.90;;;;;;;;;;4992249;28;20043;-62
2022/08/07 02:38:03;;;;;;;8.77;6.43;;;;;;;;;;4992240;28;20142;-62
2022/08/07 02:40:29;;;;;;;9.48;6.45;;;;;;;;;;4992698;28;20544;-62
2022/08/07 02:42:57;;;;;;;10.10;6.65;;;;;;;;;;4992391;28;20034;-61
2022/08/07 02:45:25;;;;;;;11.05;6.65;;;;;;;;;;4991599;28;20046;-62
2022/08/07 02:47:51;;;;;;;8.45;5.80;;;;;;;;;;4992104;28;20160;-62
2022/08/07 02:50:17;;;;;;;8.98;6.25;;;;;;;;;;4992401;28;20525;-62
2022/08/07 02:52:54;;;;;;;7.95;6.35;;;;;;;;;;4992158;28;20189;-62
2022/08/07 02:55:24;;;;;;;8.82;6.18;;;;;;;;;;4992705;28;20130;-62
2022/08/07 02:57:51;;;;;;;8.27;6.65;;;;;;;;;;4992690;28;20524;-62
2022/08/07 03:00:17;;;;;;;8.60;6.28;;;;;;;;;;4992427;28;20045;-62
2022/08/07 03:02:47;;;;;;;8.18;6.53;;;;;;;;;;4992738;28;20046;-62
2022/08/07 03:05:14;;;;;;;10.60;6.53;;;;;;;;;;4992740;28;20064;-62
2022/08/07 03:07:40;;;;;;;10.15;6.50;;;;;;;;;;4992087;28;20049;-62
2022/08/07 03:10:07;;;;;;;8.90;5.68;;;;;;;;;;4992505;28;20609;-62
2022/08/07 03:12:34;;;;;;;8.18;5.88;;;;;;;;;;4992443;28;20524;-62
2022/08/07 03:15:00;;;;;;;8.73;6.22;;;;;;;;;;4991884;28;20086;-62
2022/08/07 03:17:27;;;;;;;10.02;5.82;;;;;;;;;;4992231;28;20053;-62
2022/08/07 03:19:53;;;;;;;11.10;6.43;;;;;;;;;;4992386;28;20370;-62
2022/08/07 03:22:20;;;;;;;13.85;6.95;;;;;;;;;;4991772;28;20038;-62
2022/08/07 03:24:46;;;;;;;7.93;6.60;;;;;;;;;;4992333;28;20166;-62
2022/08/07 03:27:13;;;;;;;9.90;6.38;;;;;;;;;;4974337;28;20078;-62
2022/08/07 03:29:47;;;;;;;9.60;6.80;;;;;;;;;;4991766;28;20108;-62
2022/08/07 03:32:14;;;;;;;9.85;6.47;;;;;;;;;;4992143;28;20046;-62
2022/08/07 03:34:41;;;;;;;9.20;6.47;;;;;;;;;;4992103;28;20129;-62
2022/08/07 03:37:09;;;;;;;9.18;6.72;;;;;;;;;;4991426;28;20042;-62
2022/08/07 03:39:35;;;;;;;9.80;6.15;;;;;;;;;;4992148;28;20035;-62
2022/08/07 03:42:02;;;;;;;8.85;6.45;;;;;;;;;;4991888;28;20038;-61
2022/08/07 03:44:28;;;;;;;9.15;5.55;;;;;;;;;;4991479;28;20433;-61
2022/08/07 03:46:54;;;;;;;11.35;6.40;;;;;;;;;;4991148;28;20147;-61
2022/08/07 03:49:21;;;;;;;9.57;6.15;;;;;;;;;;4991772;28;20049;-61
2022/08/07 03:51:48;;;;;;;8.30;6.18;;;;;;;;;;4991457;28;20058;-61
2022/08/07 03:54:14;;;;;;;9.45;6.35;;;;;;;;;;4991838;28;20037;-61
2022/08/07 03:56:40;;;;;;;8.65;6.22;;;;;;;;;;4991626;28;20453;-61
2022/08/07 03:59:07;;;;;;;8.80;5.95;;;;;;;;;;4991536;28;20077;-61
2022/08/07 04:01:33;;;;;;;9.27;5.43;;;;;;;;;;4991735;28;20042;-61
2022/08/07 04:03:59;;;;;;;10.15;6.25;;;;;;;;;;4991158;28;20084;-62
2022/08/07 04:06:25;;;;;;;9.77;5.95;;;;;;;;;;4990796;28;20122;-62
2022/08/07 04:08:52;;;;;;;8.63;5.97;;;;;;;;;;4991573;28;20042;-62
2022/08/07 04:11:18;;;;;;;8.20;6.28;;;;;;;;;;4991487;28;20046;-62
2022/08/07 04:13:45;;;;;;;7.32;5.82;;;;;;;;;;4991139;28;20077;-62
2022/08/07 04:16:11;;;;;;;8.50;6.07;;;;;;;;;;4973795;28;20485;-62
2022/08/07 04:18:38;;;;;;;9.40;6.43;;;;;;;;;;4991012;28;20049;-62
2022/08/07 04:21:04;;;;;;;8.75;6.40;;;;;;;;;;4991036;28;20046;-62
2022/08/07 04:23:31;;;;;;;13.32;6.38;;;;;;;;;;4991240;28;20484;-62
2022/08/07 04:25:58;;;;;;;9.52;6.25;;;;;;;;;;4991166;28;20529;-62
2022/08/07 04:28:24;;;;;;;8.32;5.45;;;;;;;;;;4990505;28;20049;-62
2022/08/07 04:30:50;;;;;;;9.85;6.55;;;;;;;;;;4991247;28;20442;-62
2022/08/07 04:33:17;;;;;;;6.88;5.72;;;;;;;;;;4991439;28;20052;-62
2022/08/07 04:35:46;;;;;;;8.23;6.10;;;;;;;;;;4990894;28;20129;-62
2022/08/07 04:38:13;;;;;;;10.02;6.43;;;;;;;;;;4991230;28;20038;-62
2022/08/07 04:40:40;;;;;;;10.55;6.03;;;;;;;;;;4991160;28;20065;-62
2022/08/07 04:43:06;;;;;;;9.52;6.35;;;;;;;;;;4972994;28;20101;-62
2022/08/07 04:45:43;;;;;;;7.28;5.78;;;;;;;;;;4990698;28;20078;-62
2022/08/07 04:48:18;;;;;;;7.97;6.00;;;;;;;;;;4990690;28;20066;-61
2022/08/07 04:50:46;;;;;;;8.13;5.93;;;;;;;;;;4990803;28;20053;-61
2022/08/07 04:53:16;;;;;;;9.02;5.90;;;;;;;;;;4991097;28;20046;-61
2022/08/07 04:55:50;;;;;;;8.55;5.88;;;;;;;;;;4990961;28;20410;-61
2022/08/07 04:58:19;;;;;;;8.32;5.75;;;;;;;;;;4990351;28;20077;-62
2022/08/07 05:01:04;;;;;;;8.30;5.80;;;;;;;;;;4991152;28;20045;-62
2022/08/07 05:03:34;;;;;;;8.55;5.95;;;;;;;;;;4990784;28;20050;-62
2022/08/07 05:06:04;;;;;;;8.88;6.03;;;;;;;;;;4990389;28;20057;-62
2022/08/07 05:08:41;;;;;;;8.70;6.03;;;;;;;;;;4990500;28;20162;-62
2022/08/07 05:11:21;;;;;;;8.27;5.60;;;;;;;;;;4990891;28;20046;-62
2022/08/07 05:13:52;;;;;;;8.65;5.63;;;;;;;;;;4990630;28;20060;-62
2022/08/07 05:16:20;;;;;;;8.98;6.68;;;;;;;;;;4991632;28;20049;-62
2022/08/07 05:18:50;;;;;;;8.57;6.30;;;;;;;;;;4994646;28;20192;-62
2022/08/07 05:21:17;;;;;;;10.32;6.78;;;;;;;;;;4994007;28;20053;-62
2022/08/07 05:23:54;;;;;;;10.23;6.68;;;;;;;;;;4994494;28;20082;-62
2022/08/07 05:26:23;;;;;;;10.98;7.00;;;;;;;;;;4976272;28;20065;-62
2022/08/07 05:28:50;;;;;;;11.27;6.60;;;;;;;;;;4994146;28;20488;-62
2022/08/07 05:31:21;;;;;;;13.95;6.82;;;;;;;;;;4994499;28;20042;-62
2022/08/07 05:33:49;;;;;;;10.25;7.65;;;;;;;;;;4993998;28;20042;-62
2022/08/07 05:36:15;;;;;;;10.82;6.82;;;;;;;;;;4994213;28;20382;-62
2022/08/07 05:38:42;;;;;;;10.20;6.70;;;;;;;;;;4994217;28;20493;-61
2022/08/07 05:41:09;;;;;;;10.90;6.68;;;;;;;;;;4994036;28;20044;-61
2022/08/07 05:43:35;;;;;;;13.30;7.88;;;;;;;;;;4994014;28;20122;-61
2022/08/07 05:46:02;;;;;;;12.48;7.75;;;;;;;;;;4994166;28;20038;-62
2022/08/07 05:48:28;;;;;;;10.95;8.10;;;;;;;;;;4993668;28;20517;-62
2022/08/07 05:50:56;;;;;;;12.25;7.65;;;;;;;;;;4993843;28;20093;-62
2022/08/07 05:53:22;;;;;;;11.93;7.80;;;;;;;;;;4976606;28;20046;-62
2022/08/07 05:55:49;;;;;;;11.60;7.72;;;;;;;;;;4993793;28;20433;-62
2022/08/07 05:58:15;;;;;;;12.95;8.50;;;;;;;;;;4993149;28;20045;-62
2022/08/07 06:00:43;;;;;;;13.02;8.55;;;;;;;;;;4993861;28;20061;-62
2022/08/07 06:03:10;;;;;;;15.02;10.10;;;;;;;;;;4993743;28;20030;-62
2022/08/07 06:05:36;;;;;;;16.30;9.07;;;;;;;;;;4993368;28;20042;-62
2022/08/07 06:08:02;;;;;;;13.80;9.38;;;;;;;;;;4993735;28;20113;-62
2022/08/07 06:10:28;;;;;;;15.15;9.05;;;;;;;;;;4993729;28;20097;-62
2022/08/07 06:12:55;;;;;;;14.20;9.30;;;;;;;;;;4993121;28;20050;-62
2022/08/07 06:15:21;;;;;;;16.33;9.55;;;;;;;;;;4993415;28;20438;-62
2022/08/07 06:17:48;;;;;;;12.98;9.57;;;;;;;;;;4993267;28;20038;-62
2022/08/07 06:20:14;;;;;;;16.63;9.52;;;;;;;;;;4992903;28;20051;-62
2022/08/07 06:22:41;;;;;;;15.30;10.20;;;;;;;;;;4992959;28;20402;-62
2022/08/07 06:25:07;;;;;;;16.73;10.68;;;;;;;;;;4993393;28;20050;-62
2022/08/07 06:27:33;;;;;;;16.88;11.07;;;;;;;;;;4992360;28;20425;-62
2022/08/07 06:30:00;;;;;;;17.60;11.32;;;;;;;;;;4993259;28;20042;-62
2022/08/07 06:32:26;;;;;;;15.70;10.93;;;;;;;;;;4992776;28;20055;-62
2022/08/07 06:34:52;;;;;;;17.77;11.43;;;;;;;;;;4992781;28;20077;-62
2022/08/07 06:37:18;;;;;;;17.85;11.80;;;;;;;;;;4992982;28;20140;-62
2022/08/07 06:39:44;;;;;;;15.95;10.05;;;;;;;;;;4993101;28;20038;-62
2022/08/07 06:42:36;;;;;;;15.32;10.98;;;;;;;;;;4992467;28;20031;-62
2022/08/07 06:45:02;;;;;;;20.20;11.75;;;;;;;;;;4993064;28;20050;-62
2022/08/07 06:47:28;;;;;;;15.18;10.60;;;;;;;;;;4992530;28;20061;-62
2022/08/07 06:49:54;;;;;;;14.35;10.27;;;;;;;;;;4992309;28;20042;-62
2022/08/07 06:52:22;;;;;;;13.93;10.00;;;;;;;;;;4993212;28;20382;-62
2022/08/07 06:54:49;;;;;;;17.15;10.27;;;;;;;;;;4992928;28;20122;-62
2022/08/07 06:57:15;;;;;;;14.48;9.80;;;;;;;;;;4992497;28;20456;-62
2022/08/07 06:59:42;;;;;;;15.27;10.30;;;;;;;;;;4975269;28;20034;-62
2022/08/07 07:02:15;;;;;;;17.08;10.48;;;;;;;;;;4992726;28;20109;-62
2022/08/07 07:04:43;;;;;;;18.35;9.27;;;;;;;;;;4992209;28;20053;-62
2022/08/07 07:07:09;;;;;;;14.10;8.68;;;;;;;;;;4992530;28;20046;-62
2022/08/07 07:09:35;;;;;;;9.93;7.65;;;;;;;;;;4992640;28;20365;-62
2022/08/07 07:12:06;;;;;;;10.82;6.30;;;;;;;;;;4992129;28;20046;-62
2022/08/07 07:14:44;;;;;;;8.48;6.13;;;;;;;;;;4992593;28;20053;-62
2022/08/07 07:17:15;;;;;;;8.68;6.25;;;;;;;;;;4992244;28;20046;-62
2022/08/07 07:19:45;;;;;;;11.25;5.75;;;;;;;;;;4991905;28;20085;-62
2022/08/07 07:22:12;;;;;;;9.27;5.85;;;;;;;;;;4992317;28;20034;-62
2022/08/07 07:24:38;;;;;;;10.63;6.03;;;;;;;;;;4992311;28;20125;-62
2022/08/07 07:27:05;;;;;;;7.97;5.07;;;;;;;;;;4991676;28;20093;-62
2022/08/07 07:29:34;;;;;;;8.68;5.15;;;;;;;;;;4992286;28;20057;-62
2022/08/07 07:32:02;;;;;;;6.05;4.35;;;;;;;;;;4992191;28;20077;-62
2022/08/07 07:34:30;;;;;;;8.30;4.93;;;;;;;;;;4991708;28;20050;-62
2022/08/07 07:36:57;;;;;;;7.88;5.47;;;;;;;;;;4991991;28;20050;-62
2022/08/07 07:39:25;;;;;;;9.00;5.97;;;;;;;;;;4991417;28;20446;-62
2022/08/07 07:41:52;;;;;;;9.15;5.82;;;;;;;;;;4991400;28;20130;-62
2022/08/07 07:44:19;;;;;;;8.75;4.82;;;;;;;;;;4991893;28;20053;-62
2022/08/07 07:46:46;;;;;;;8.05;5.45;;;;;;;;;;4991715;28;20065;-62
2022/08/07 07:49:14;;;;;;;8.73;4.60;;;;;;;;;;4991072;28;20062;-62
2022/08/07 07:51:41;;;;;;;5.50;4.40;;;;;;;;;;4991734;28;20042;-62
2022/08/07 07:54:08;;;;;;;7.82;4.30;;;;;;;;;;4974362;28;20366;-62
2022/08/07 07:56:34;;;;;;;8.75;4.18;;;;;;;;;;4991278;28;20054;-62
2022/08/07 07:59:01;;;;;;;5.88;3.65;;;;;;;;;;4991759;28;20065;-62
2022/08/07 08:01:28;;;;;;;5.30;3.30;;;;;;;;;;4991801;28;20620;-62
2022/08/07 08:03:55;;;;;;;5.50;3.92;;;;;;;;;;4990950;28;20057;-62
2022/08/07 08:06:23;;;;;;;4.45;3.15;;;;;;;;;;4991561;28;20076;-62
2022/08/07 08:08:50;;;;;;;8.15;4.03;;;;;;;;;;4991396;28;20047;-62
2022/08/07 08:11:16;;;;;;;5.88;3.50;;;;;;;;;;4991088;28;20390;-62
2022/08/07 08:13:43;;;;;;;4.93;3.72;;;;;;;;;;4991175;28;20053;-62
2022/08/07 08:16:12;;;;;;;8.60;3.47;;;;;;;;;;4991436;28;20065;-62
2022/08/07 08:18:38;;;;;;;4.53;3.20;;;;;;;;;;4990988;28;20504;-62
2022/08/07 08:21:04;;;;;;;4.50;2.75;;;;;;;;;;4991468;28;20401;-62
2022/08/07 08:29:03;;;;;;;4.18;2.13;;;;;;;;;;4991509;28;20610;-62
2022/08/07 08:31:32;;;;;;;2.97;2.00;;;;;;;;;;4990736;28;20042;-62
2022/08/07 08:33:59;;;;;;;2.70;1.95;;;;;;;;;;4991461;28;20117;-62
2022/08/07 08:36:29;;;;;;;2.85;1.80;;;;;;;;;;4991273;28;20042;-62
2022/08/07 08:38:56;;;;;;;4.15;1.70;;;;;;;;;;4972369;28;20038;-62
2022/08/07 08:41:38;;;;;;;3.40;1.90;;;;;;;;;;4990825;28;20034;-62
2022/08/07 08:44:23;;;;;;;3.08;1.88;;;;;;;;;;4990728;28;20474;-62
2022/08/07 08:47:02;;;;;;;3.50;1.73;;;;;;;;;;4990034;28;20100;-62
2022/08/07 08:49:36;;;;;;;3.35;1.63;;;;;;;;;;4990607;28;20055;-62
2022/08/07 08:52:21;;;;;;;2.47;1.80;;;;;;;;;;4994379;28;20077;-62
2022/08/07 08:54:56;;;;;;;2.83;2.33;;;;;;;;;;4994277;28;20265;-62
2022/08/07 08:57:28;;;;;;;3.80;2.00;;;;;;;;;;4994856;28;20133;-62
2022/08/07 09:00:01;;;;;;;3.95;1.98;;;;;;;;;;4995090;28;20044;-62
2022/08/07 09:02:27;;;;;;;4.15;2.38;;;;;;;;;;4977269;28;20042;-62
2022/08/07 09:05:13;;;;;;;4.90;2.85;;;;;;;;;;4994695;28;20131;-62
2022/08/07 09:07:46;;;;;;;4.70;2.45;;;;;;;;;;4994257;28;20053;-62
2022/08/07 09:10:31;;;;;;;3.90;2.30;;;;;;;;;;4994305;28;20100;-62
2022/08/07 09:13:16;;;;;;;2.80;2.40;;;;;;;;;;4994764;28;20720;-62
2022/08/07 09:15:53;;;;;;;2.75;1.98;;;;;;;;;;4994406;28;20042;-62
2022/08/07 09:18:31;;;;;;;5.43;2.42;;;;;;;;;;4976778;28;20528;-62
2022/08/07 09:21:03;;;;;;;4.57;2.00;;;;;;;;;;4994184;28;20045;-62
2022/08/07 09:23:29;;;;;;;;;;;;;;;;;;4994625;28;20065;-62
2022/08/07 09:26:05;;;;;;;3.65;1.92;;;;;;;;;;4994153;28;19929;-62
2022/08/07 09:28:37;;;;;;;3.72;2.20;;;;;;;;;;4994342;28;20650;-62
2022/08/07 09:31:09;;;;;;;7.57;2.72;;;;;;;;;;4993736;28;20046;-62
2022/08/07 09:33:54;;;;;;;3.17;2.20;;;;;;;;;;4994425;28;20528;-65
2022/08/07 09:36:24;;;;;;;3.33;2.03;;;;;;;;;;4994040;28;20050;-65
2022/08/07 09:39:02;;;;;;;5.80;2.60;;;;;;;;;;4993869;28;20039;-65
2022/08/07 09:41:49;;;;;;;5.47;2.30;;;;;;;;;;4994050;28;20038;-65
2022/08/07 09:44:21;;;;;;;3.53;2.35;;;;;;;;;;4954097;28;20094;-65
2022/08/07 09:46:47;;;;;;;;;;;;;;;;;;4974314;28;20073;-65
2022/08/07 09:49:14;;;;;;;2.42;2.20;;;;;;;;;;4974578;28;19922;-65
2022/08/07 09:52:03;;;;;;;3.05;2.13;;;;;;;;;;4974682;28;20042;-65
2022/08/07 09:54:34;;;;;;;4.28;2.38;;;;;;;;;;4973270;28;20050;-65
2022/08/07 09:57:09;;;;;;;4.50;2.30;;;;;;;;;;4974470;28;20122;-65
2022/08/07 09:59:52;;;;;;;2.97;2.13;;;;;;;;;;4974484;28;20050;-65
2022/08/07 10:02:24;;;;;;;3.75;2.15;;;;;;;;;;4973307;28;20057;-65
2022/08/07 10:04:57;;;;;;;3.72;2.28;;;;;;;;;;4956722;28;20599;-65
2022/08/07 10:07:43;;;;;;;4.82;2.45;;;;;;;;;;4974236;28;20398;-65
2022/08/07 10:10:27;;;;;;;3.92;2.30;;;;;;;;;;4974236;28;20051;-65
2022/08/07 10:12:53;;;;;;;2.83;2.35;;;;;;;;;;4974374;28;20035;-65
2022/08/07 10:15:55;;;;;;;5.30;2.35;;;;;;;;;;4973759;28;20047;-65
2022/08/07 10:18:24;;;;;;;2.88;2.22;;;;;;;;;;4970917;28;20046;-65
2022/08/07 10:21:09;;;;;;;3.75;1.80;;;;;;;;;;4973464;28;20059;-65
2022/08/07 10:23:54;;;;;;;3.50;1.80;;;;;;;;;;4973555;28;20043;-65
2022/08/07 10:26:29;;;;;;;2.78;1.80;;;;;;;;;;4985556;28;20042;-65
2022/08/07 10:29:31;;;;;;;3.47;2.00;;;;;;;;;;4976071;28;20089;-65
2022/08/07 10:32:00;;;;;;;3.15;1.60;;;;;;;;;;4913119;29;20066;-65
2022/08/07 10:34:32;;;;;;;2.92;1.90;;;;;;;;;;4978594;28;20050;-65
2022/08/07 10:37:07;;;;;;;2.28;1.80;;;;;;;;;;4975165;28;20074;-65
2022/08/07 10:39:44;;;;;;;2.08;1.77;;;;;;;;;;4992738;28;20038;-65
2022/08/07 10:42:22;;;;;;;2.53;1.65;;;;;;;;;;4993025;28;20027;-65
2022/08/07 10:44:56;;;;;;;3.72;1.65;;;;;;;;;;4992732;28;20057;-65
2022/08/07 10:47:28;;;;;;;3.25;1.92;;;;;;;;;;4992568;28;20058;-65
2022/08/07 10:49:54;;;;;;;1.80;1.60;;;;;;;;;;4992973;28;20050;-65
2022/08/07 10:52:21;;;;;;;3.10;2.28;;;;;;;;;;4992408;28;20057;-65
2022/08/07 10:55:02;;;;;;;4.28;1.75;;;;;;;;;;4992805;28;20038;-65
2022/08/07 10:57:34;;;;;;;3.78;2.08;;;;;;;;;;4992633;28;20042;-65
2022/08/07 11:00:03;;;;;;;2.33;1.75;;;;;;;;;;4992404;28;20069;-65
2022/08/07 11:02:36;;;;;;;5.38;2.00;;;;;;;;;;4992776;28;20038;-65
2022/08/07 11:05:20;;;;;;;2.38;2.08;;;;;;;;;;4992684;28;20399;-65
2022/08/07 11:08:08;;;;;;;1.85;1.65;;;;;;;;;;4992035;28;20042;-65
2022/08/07 11:10:38;;;;;;;2.83;1.60;;;;;;;;;;4992646;28;20045;-65
2022/08/07 11:13:12;;;;;;;2.53;1.77;;;;;;;;;;4992476;28;20465;-65
2022/08/07 11:15:39;;;;;;;1.85;1.30;;;;;;;;;;4991155;28;20046;-65
2022/08/07 11:18:14;;;;;;;3.55;1.63;;;;;;;;;;4992375;28;20043;-65
2022/08/07 11:20:59;;;;;;;2.88;1.42;;;;;;;;;;4992522;28;20046;-65
2022/08/07 11:23:43;;;;;;;3.03;1.52;;;;;;;;;;4991997;28;20503;-65
2022/08/07 11:26:13;;;;;;;2.33;1.50;;;;;;;;;;4992129;28;20050;-65
2022/08/07 11:28:47;;;;;;;1.40;1.30;;;;;;;;;;4991956;28;20125;-65
2022/08/07 11:31:26;;;;;;;3.90;1.58;;;;;;;;;;4991801;28;20053;-65
2022/08/07 11:34:11;;;;;;;2.28;1.55;;;;;;;;;;4991889;28;20049;-65
2022/08/07 11:36:46;;;;;;;1.50;1.40;;;;;;;;;;4991381;28;20497;-65
2022/08/07 11:39:16;;;;;;;1.70;1.40;;;;;;;;;;4992069;28;20046;-65
2022/08/07 11:41:46;;;;;;;1.60;1.50;;;;;;;;;;4992092;28;20592;-65
2022/08/07 11:44:22;;;;;;;1.58;1.40;;;;;;;;;;4972360;28;20042;-65
2022/08/07 11:46:56;;;;;;;1.80;1.27;;;;;;;;;;4972036;28;20042;-65
2022/08/07 11:49:41;;;;;;;2.40;1.50;;;;;;;;;;4972576;28;20118;-65
2022/08/07 11:52:07;;;;;;;2.13;1.60;;;;;;;;;;4971778;28;20122;-65
2022/08/07 11:54:42;;;;;;;2.97;1.70;;;;;;;;;;4972414;28;20177;-65
2022/08/07 11:57:21;;;;;;;3.35;1.77;;;;;;;;;;4972108;28;20050;-65
2022/08/07 11:59:53;;;;;;;2.30;1.50;;;;;;;;;;4972187;28;20582;-65
2022/08/07 12:02:19;;;;;;;3.55;1.75;;;;;;;;;;4972309;28;20039;-66
2022/08/07 12:04:51;;;;;;;1.50;1.40;;;;;;;;;;4972300;28;20050;-66
2022/08/07 12:07:17;;;;;;;;;;;;;;;;;;4972061;28;20046;-66
2022/08/07 12:09:54;;;;;;;1.98;1.50;;;;;;;;;;4972362;28;19925;-65
2022/08/07 12:12:28;;;;;;;1.52;1.40;;;;;;;;;;4972313;28;20447;-65
2022/08/07 12:15:05;;;;;;;1.60;1.50;;;;;;;;;;4972010;28;20532;-65
2022/08/07 12:17:39;;;;;;;2.55;1.40;;;;;;;;;;4972067;28;20046;-66
2022/08/07 12:20:05;;;;;;;4.05;1.90;;;;;;;;;;4972217;28;20103;-66
2022/08/07 12:22:39;;;;;;;2.28;1.80;;;;;;;;;;4971385;28;20069;-66
2022/08/07 12:28:00;;;;;;;1.70;1.45;;;;;;;;;;4971388;28;20133;-66
2022/08/07 12:30:28;;;;;;;2.30;1.90;;;;;;;;;;4971403;28;20053;-66
2022/08/07 12:33:04;;;;;;;3.10;1.80;;;;;;;;;;4954365;28;20046;-66
2022/08/07 12:35:31;;;;;;;3.35;1.80;;;;;;;;;;4971668;28;20074;-66
2022/08/07 12:37:58;;;;;;;5.43;1.60;;;;;;;;;;4971556;28;20050;-66
2022/08/07 12:40:27;;;;;;;1.60;1.50;;;;;;;;;;4972099;28;20081;-66
2022/08/07 12:42:54;;;;;;;1.77;1.67;;;;;;;;;;4971984;28;20151;-66
2022/08/07 12:45:25;;;;;;;3.03;1.30;;;;;;;;;;4971427;28;20046;-66
2022/08/07 12:48:10;;;;;;;1.23;1.10;;;;;;;;;;4979301;28;20057;-66
2022/08/07 12:50:48;;;;;;;1.92;1.23;;;;;;;;;;4991004;28;20046;-66
2022/08/07 12:53:14;;;;;;;1.60;1.50;;;;;;;;;;4991388;28;20041;-66
2022/08/07 12:55:43;;;;;;;1.92;1.40;;;;;;;;;;4991217;28;20038;-66
2022/08/07 12:58:10;;;;;;;2.97;1.00;;;;;;;;;;4990780;28;20038;-66
2022/08/07 13:00:48;;;;;;;1.13;0.90;;;;;;;;;;4991216;28;20042;-66
2022/08/07 13:03:27;;;;;;;2.17;1.30;;;;;;;;;;4991280;28;20036;-66
2022/08/07 13:06:00;;;;;;;1.38;1.27;;;;;;;;;;4990720;28;20042;-66
2022/08/07 13:08:33;;;;;;;4.03;1.40;;;;;;;;;;4990991;28;20046;-66
2022/08/07 13:11:00;;;;;;;2.13;1.23;;;;;;;;;;4991049;28;20366;-66
2022/08/07 13:13:47;;;;;;;2.47;1.60;;;;;;;;;;4990621;28;20133;-66
2022/08/07 13:16:32;;;;;;;2.00;1.45;;;;;;;;;;4990647;28;20125;-66
2022/08/07 13:19:21;;;;;;;1.50;0.90;;;;;;;;;;4990674;28;20055;-66
2022/08/07 13:22:02;;;;;;;3.35;1.30;;;;;;;;;;4990403;28;20050;-66
2022/08/07 13:24:34;;;;;;;2.20;1.33;;;;;;;;;;4990988;28;20398;-66
2022/08/07 13:27:07;;;;;;;1.95;1.20;;;;;;;;;;4973167;28;20180;-66
2022/08/07 13:29:42;;;;;;;1.55;1.45;;;;;;;;;;4990570;28;20042;-66
2022/08/07 13:32:18;;;;;;;2.58;1.20;;;;;;;;;;4990847;28;20515;-66
2022/08/07 13:35:05;;;;;;;1.48;1.20;;;;;;;;;;4990483;28;20076;-66
2022/08/07 13:37:39;;;;;;;2.05;1.30;;;;;;;;;;4991658;28;20066;-66
2022/08/07 13:40:22;;;;;;;3.45;1.40;;;;;;;;;;4994256;28;20541;-66
2022/08/07 13:42:49;;;;;;;1.52;1.20;;;;;;;;;;4993943;28;20050;-66
2022/08/07 13:45:16;;;;;;;1.50;1.40;;;;;;;;;;4976811;28;20034;-66
2022/08/07 13:47:43;;;;;;;1.52;1.20;;;;;;;;;;4976114;28;20101;-66
2022/08/07 13:50:12;;;;;;;2.35;1.60;;;;;;;;;;4993827;28;20042;-66
2022/08/07 13:52:40;;;;;;;2.13;1.48;;;;;;;;;;4994038;28;20319;-66
2022/08/07 13:55:09;;;;;;;1.85;1.40;;;;;;;;;;4994105;28;20056;-66
2022/08/07 13:57:38;;;;;;;3.45;1.38;;;;;;;;;;4993634;28;20118;-66
2022/08/07 14:00:06;;;;;;;1.95;1.50;;;;;;;;;;4994078;28;20689;-66
2022/08/07 14:02:33;;;;;;;4.00;1.67;;;;;;;;;;4993650;28;20043;-66
2022/08/07 14:05:03;;;;;;;2.45;1.80;;;;;;;;;;4993056;28;20042;-66
2022/08/07 14:07:33;;;;;;;2.00;1.40;;;;;;;;;;4993740;28;20074;-66
2022/08/07 14:10:01;;;;;;;2.00;1.35;;;;;;;;;;4993865;28;20049;-66
2022/08/07 14:12:47;;;;;;;3.15;1.67;;;;;;;;;;4993516;28;20050;-66
2022/08/07 14:15:45;;;;;;;2.70;1.55;;;;;;;;;;4993696;28;20042;-66
2022/08/07 14:18:17;;;;;;;4.18;1.67;;;;;;;;;;4950253;28;20497;-66
2022/08/07 14:20:44;;;;;;;;;;;;;;;;;;4993591;28;20081;-66
2022/08/07 14:23:31;;;;;;;2.45;1.40;;;;;;;;;;4993581;28;19925;-66
2022/08/07 14:26:11;;;;;;;3.28;1.90;;;;;;;;;;4993416;28;20112;-66
2022/08/07 14:28:40;;;;;;;2.72;1.40;;;;;;;;;;4992796;28;20046;-66
2022/08/07 14:31:06;;;;;;;2.13;1.80;;;;;;;;;;4993401;28;20408;-66
2022/08/07 14:33:33;;;;;;;3.60;1.50;;;;;;;;;;4993147;28;20121;-66
2022/08/07 14:36:00;;;;;;;4.32;1.63;;;;;;;;;;4992730;28;20409;-66
2022/08/07 14:38:28;;;;;;;6.53;1.67;;;;;;;;;;4992248;28;20046;-66
2022/08/07 14:40:59;;;;;;;2.85;1.60;;;;;;;;;;4991735;28;20046;-66
2022/08/07 14:43:26;;;;;;;2.13;1.48;;;;;;;;;;4991675;28;20042;-66
2022/08/07 14:45:53;;;;;;;3.03;1.90;;;;;;;;;;4991885;28;20038;-66
2022/08/07 14:48:20;;;;;;;2.45;1.75;;;;;;;;;;4991447;28;20060;-66
2022/08/07 14:50:48;;;;;;;3.65;1.60;;;;;;;;;;4991257;28;20408;-66
2022/08/07 14:53:14;;;;;;;2.03;1.67;;;;;;;;;;4991788;28;20046;-66
2022/08/07 14:55:43;;;;;;;2.70;1.70;;;;;;;;;;4991737;28;20047;-66
2022/08/07 14:58:11;;;;;;;3.42;1.70;;;;;;;;;;4991012;28;20166;-66
2022/08/07 15:00:39;;;;;;;1.83;1.60;;;;;;;;;;4991689;28;20050;-66
2022/08/07 15:03:06;;;;;;;2.90;1.80;;;;;;;;;;4991644;28;20481;-66
2022/08/07 15:05:33;;;;;;;2.25;1.80;;;;;;;;;;4991215;28;20057;-66
2022/08/07 15:08:03;;;;;;;2.13;1.92;;;;;;;;;;4991140;28;20064;-66